sensor_id;sensor_type;location;lat;lon;timestamp;temperature;humidity
67165;SHT31;54093;50.014;19.984;2023-07-13T00:06:57;22.72;69.39
67165;SHT31;54093;50.014;19.984;2023-07-13T00:16:18;22.64;70.39
67165;SHT31;54093;50.014;19.984;2023-07-13T00:25:39;22.33;72.70
67165;SHT31;54093;50.014;19.984;2023-07-13T00:35:01;22.17;73.06
67165;SHT31;54093;50.014;19.984;2023-07-13T00:44:23;22.13;73.58
67165;SHT31;54093;50.014;19.984;2023-07-13T00:53:45;21.96;74.57
67165;SHT31;54093;50.014;19.984;2023-07-13T01:03:05;21.69;75.36
67165;SHT31;54093;50.014;19.984;2023-07-13T01:12:34;21.54;76.84
67165;SHT31;54093;50.014;19.984;2023-07-13T01:21:55;21.47;77.12
67165;SHT31;54093;50.014;19.984;2023-07-13T01:31:15;21.34;77.24
67165;SHT31;54093;50.014;19.984;2023-07-13T01:40:37;21.51;76.20
67165;SHT31;54093;50.014;19.984;2023-07-13T01:49:58;21.51;76.99
67165;SHT31;54093;50.014;19.984;2023-07-13T01:59:19;21.58;76.71
67165;SHT31;54093;50.014;19.984;2023-07-13T02:08:41;21.55;76.27
67165;SHT31;54093;50.014;19.984;2023-07-13T02:18:02;21.31;77.06
67165;SHT31;54093;50.014;19.984;2023-07-13T02:27:24;21.27;76.82
67165;SHT31;54093;50.014;19.984;2023-07-13T02:36:45;21.39;76.31
67165;SHT31;54093;50.014;19.984;2023-07-13T02:46:06;21.00;77.36
67165;SHT31;54093;50.014;19.984;2023-07-13T02:55:29;20.91;77.59
67165;SHT31;54093;50.014;19.984;2023-07-13T03:04:50;20.87;77.20
67165;SHT31;54093;50.014;19.984;2023-07-13T03:14:11;20.69;77.84
67165;SHT31;54093;50.014;19.984;2023-07-13T03:23:32;20.68;77.65
67165;SHT31;54093;50.014;19.984;2023-07-13T03:32:53;20.97;76.49
67165;SHT31;54093;50.014;19.984;2023-07-13T03:42:14;21.08;76.43
67165;SHT31;54093;50.014;19.984;2023-07-13T03:51:35;20.90;76.00
67165;SHT31;54093;50.014;19.984;2023-07-13T04:00:57;20.87;76.69
67165;SHT31;54093;50.014;19.984;2023-07-13T04:10:17;20.91;77.59
67165;SHT31;54093;50.014;19.984;2023-07-13T04:19:38;20.73;77.79
67165;SHT31;54093;50.014;19.984;2023-07-13T04:28:59;20.96;77.20
67165;SHT31;54093;50.014;19.984;2023-07-13T04:38:20;21.00;78.26
67165;SHT31;54093;50.014;19.984;2023-07-13T04:47:41;21.18;77.19
67165;SHT31;54093;50.014;19.984;2023-07-13T04:57:03;21.38;76.82
67165;SHT31;54093;50.014;19.984;2023-07-13T05:06:26;21.65;77.01
67165;SHT31;54093;50.014;19.984;2023-07-13T05:15:55;21.71;75.51
67165;SHT31;54093;50.014;19.984;2023-07-13T05:25:16;22.06;76.84
67165;SHT31;54093;50.014;19.984;2023-07-13T05:34:38;22.48;77.67
67165;SHT31;54093;50.014;19.984;2023-07-13T05:43:59;22.79;75.48
67165;SHT31;54093;50.014;19.984;2023-07-13T05:53:20;23.03;75.09
67165;SHT31;54093;50.014;19.984;2023-07-13T06:02:41;23.12;73.03
67165;SHT31;54093;50.014;19.984;2023-07-13T06:12:02;23.46;74.33
67165;SHT31;54093;50.014;19.984;2023-07-13T06:21:23;23.74;73.35
67165;SHT31;54093;50.014;19.984;2023-07-13T06:30:44;23.91;73.65
67165;SHT31;54093;50.014;19.984;2023-07-13T06:40:06;24.39;70.16
67165;SHT31;54093;50.014;19.984;2023-07-13T06:49:27;24.73;69.32
67165;SHT31;54093;50.014;19.984;2023-07-13T06:58:47;24.93;69.76
67165;SHT31;54093;50.014;19.984;2023-07-13T07:08:09;25.41;68.84
67165;SHT31;54093;50.014;19.984;2023-07-13T07:17:29;26.19;66.25
67165;SHT31;54093;50.014;19.984;2023-07-13T07:26:50;26.51;60.65
67165;SHT31;54093;50.014;19.984;2023-07-13T07:36:11;26.69;62.77
67165;SHT31;54093;50.014;19.984;2023-07-13T07:45:32;27.16;61.58
67165;SHT31;54093;50.014;19.984;2023-07-13T07:54:53;27.61;60.39
67165;SHT31;54093;50.014;19.984;2023-07-13T08:04:14;27.56;59.32
67165;SHT31;54093;50.014;19.984;2023-07-13T08:13:35;28.05;59.87
67165;SHT31;54093;50.014;19.984;2023-07-13T08:22:56;28.74;54.75
67165;SHT31;54093;50.014;19.984;2023-07-13T08:32:18;28.81;54.45
67165;SHT31;54093;50.014;19.984;2023-07-13T08:41:39;28.50;52.71
67165;SHT31;54093;50.014;19.984;2023-07-13T09:10:44;27.71;56.16
67165;SHT31;54093;50.014;19.984;2023-07-13T09:20:19;27.39;58.05
67165;SHT31;54093;50.014;19.984;2023-07-13T09:29:47;26.91;57.04
67165;SHT31;54093;50.014;19.984;2023-07-13T09:39:15;26.82;57.13
67165;SHT31;54093;50.014;19.984;2023-07-13T09:48:36;26.82;58.77
67165;SHT31;54093;50.014;19.984;2023-07-13T09:57:57;26.62;58.88
67165;SHT31;54093;50.014;19.984;2023-07-13T10:07:22;26.37;59.81
67165;SHT31;54093;50.014;19.984;2023-07-13T10:16:45;26.06;60.45
67165;SHT31;54093;50.014;19.984;2023-07-13T10:26:13;25.58;61.19
67165;SHT31;54093;50.014;19.984;2023-07-13T10:35:35;25.17;64.66
67165;SHT31;54093;50.014;19.984;2023-07-13T10:44:56;24.75;67.81
67165;SHT31;54093;50.014;19.984;2023-07-13T10:54:26;23.91;71.40
67165;SHT31;54093;50.014;19.984;2023-07-13T11:03:50;23.56;71.51
67165;SHT31;54093;50.014;19.984;2023-07-13T11:13:37;23.03;73.44
67165;SHT31;54093;50.014;19.984;2023-07-13T11:32:33;22.69;74.42
67165;SHT31;54093;50.014;19.984;2023-07-13T11:41:56;22.27;76.34
67165;SHT31;54093;50.014;19.984;2023-07-13T11:51:29;21.69;72.92
67165;SHT31;54093;50.014;19.984;2023-07-13T12:00:55;21.23;73.55
67165;SHT31;54093;50.014;19.984;2023-07-13T12:10:26;21.00;74.52
67165;SHT31;54093;50.014;19.984;2023-07-13T12:19:52;20.65;74.84
67165;SHT31;54093;50.014;19.984;2023-07-13T12:29:16;20.72;74.85
67165;SHT31;54093;50.014;19.984;2023-07-13T12:38:37;20.59;73.85
67165;SHT31;54093;50.014;19.984;2023-07-13T12:48:05;20.76;75.24
67165;SHT31;54093;50.014;19.984;2023-07-13T12:57:29;20.75;74.75
67165;SHT31;54093;50.014;19.984;2023-07-13T13:07:01;20.48;75.08
67165;SHT31;54093;50.014;19.984;2023-07-13T13:16:24;20.26;76.60
67165;SHT31;54093;50.014;19.984;2023-07-13T13:25:52;20.22;76.21
67165;SHT31;54093;50.014;19.984;2023-07-13T13:35:18;20.07;77.05
67165;SHT31;54093;50.014;19.984;2023-07-13T13:44:39;20.02;77.73
67165;SHT31;54093;50.014;19.984;2023-07-13T13:54:05;19.91;77.47
67165;SHT31;54093;50.014;19.984;2023-07-13T14:03:30;19.97;78.27
67165;SHT31;54093;50.014;19.984;2023-07-13T14:12:52;20.12;78.48
67165;SHT31;54093;50.014;19.984;2023-07-13T14:22:13;20.45;78.13
67165;SHT31;54093;50.014;19.984;2023-07-13T14:31:34;20.59;76.03
67165;SHT31;54093;50.014;19.984;2023-07-13T14:40:55;20.68;75.14
67165;SHT31;54093;50.014;19.984;2023-07-13T14:50:22;20.72;75.24
67165;SHT31;54093;50.014;19.984;2023-07-13T14:59:45;21.08;75.49
67165;SHT31;54093;50.014;19.984;2023-07-13T15:09:11;21.38;74.64
67165;SHT31;54093;50.014;19.984;2023-07-13T15:18:34;21.26;74.60
67165;SHT31;54093;50.014;19.984;2023-07-13T15:27:57;21.17;74.79
67165;SHT31;54093;50.014;19.984;2023-07-13T15:37:18;21.39;75.26
67165;SHT31;54093;50.014;19.984;2023-07-13T15:46:41;21.34;74.08
67165;SHT31;54093;50.014;19.984;2023-07-13T15:56:34;21.26;74.40
67165;SHT31;54093;50.014;19.984;2023-07-13T16:05:55;21.51;73.37
67165;SHT31;54093;50.014;19.984;2023-07-13T16:15:20;21.38;71.95
67165;SHT31;54093;50.014;19.984;2023-07-13T16:24:41;21.26;73.24
67165;SHT31;54093;50.014;19.984;2023-07-13T16:34:04;21.30;72.38
67165;SHT31;54093;50.014;19.984;2023-07-13T16:43:25;21.20;71.01
67165;SHT31;54093;50.014;19.984;2023-07-13T16:52:47;21.08;71.70
67165;SHT31;54093;50.014;19.984;2023-07-13T17:02:30;21.07;72.73
67165;SHT31;54093;50.014;19.984;2023-07-13T17:11:52;21.04;73.24
67165;SHT31;54093;50.014;19.984;2023-07-13T17:21:15;20.97;73.22
67165;SHT31;54093;50.014;19.984;2023-07-13T17:30:38;21.06;74.03
67165;SHT31;54093;50.014;19.984;2023-07-13T17:40:00;21.04;73.90
67165;SHT31;54093;50.014;19.984;2023-07-13T17:49:23;21.06;73.91
67165;SHT31;54093;50.014;19.984;2023-07-13T17:59:07;20.89;71.13
67165;SHT31;54093;50.014;19.984;2023-07-13T18:08:30;20.57;74.43
67165;SHT31;54093;50.014;19.984;2023-07-13T18:17:51;20.42;74.91
67165;SHT31;54093;50.014;19.984;2023-07-13T18:27:12;20.14;75.36
67165;SHT31;54093;50.014;19.984;2023-07-13T18:36:33;20.05;74.85
67165;SHT31;54093;50.014;19.984;2023-07-13T18:45:58;20.11;75.11
67165;SHT31;54093;50.014;19.984;2023-07-13T18:55:22;19.98;75.89
67165;SHT31;54093;50.014;19.984;2023-07-13T19:04:45;19.87;75.86
67165;SHT31;54093;50.014;19.984;2023-07-13T19:14:17;19.75;75.80
67165;SHT31;54093;50.014;19.984;2023-07-13T19:23:43;19.66;76.02
67165;SHT31;54093;50.014;19.984;2023-07-13T19:33:05;19.63;76.80
67165;SHT31;54093;50.014;19.984;2023-07-13T19:42:27;19.56;76.53
67165;SHT31;54093;50.014;19.984;2023-07-13T19:51:49;19.36;77.24
67165;SHT31;54093;50.014;19.984;2023-07-13T20:01:11;19.39;77.38
67165;SHT31;54093;50.014;19.984;2023-07-13T20:10:31;19.29;77.16
67165;SHT31;54093;50.014;19.984;2023-07-13T20:19:54;19.04;77.80
67165;SHT31;54093;50.014;19.984;2023-07-13T20:29:15;18.96;78.30
67165;SHT31;54093;50.014;19.984;2023-07-13T20:38:36;18.98;78.08
67165;SHT31;54093;50.014;19.984;2023-07-13T20:48:07;18.87;77.88
67165;SHT31;54093;50.014;19.984;2023-07-13T20:57:31;18.77;78.12
67165;SHT31;54093;50.014;19.984;2023-07-13T21:06:53;18.72;78.18
67165;SHT31;54093;50.014;19.984;2023-07-13T21:16:27;18.87;78.06
67165;SHT31;54093;50.014;19.984;2023-07-13T21:25:48;18.87;77.57
67165;SHT31;54093;50.014;19.984;2023-07-13T21:35:18;18.77;77.74
67165;SHT31;54093;50.014;19.984;2023-07-13T21:44:42;18.71;79.51
67165;SHT31;54093;50.014;19.984;2023-07-13T21:54:13;18.60;80.25
67165;SHT31;54093;50.014;19.984;2023-07-13T22:03:37;18.47;80.87
67165;SHT31;54093;50.014;19.984;2023-07-13T22:12:58;18.34;81.10
67165;SHT31;54093;50.014;19.984;2023-07-13T22:22:18;18.27;81.45
67165;SHT31;54093;50.014;19.984;2023-07-13T22:31:40;18.19;81.83
67165;SHT31;54093;50.014;19.984;2023-07-13T22:41:01;18.12;82.23
67165;SHT31;54093;50.014;19.984;2023-07-13T22:50:22;18.05;82.24
67165;SHT31;54093;50.014;19.984;2023-07-13T22:59:43;18.00;82.20
67165;SHT31;54093;50.014;19.984;2023-07-13T23:09:05;17.96;82.11
67165;SHT31;54093;50.014;19.984;2023-07-13T23:18:26;17.88;82.40
67165;SHT31;54093;50.014;19.984;2023-07-13T23:27:49;17.83;82.27
67165;SHT31;54093;50.014;19.984;2023-07-13T23:37:16;17.78;81.89
67165;SHT31;54093;50.014;19.984;2023-07-13T23:46:47;17.72;81.93
67165;SHT31;54093;50.014;19.984;2023-07-13T23:56:20;17.65;81.95
